createdAt,value
2018-06-25T00:01:16.367Z,90.40
2018-06-25T00:06:13.311Z,90.50
2018-06-25T00:08:41.221Z,90.30
2018-06-25T00:11:10.151Z,90.40
2018-06-25T00:18:34.196Z,90.60
2018-06-25T00:21:02.825Z,90.40
2018-06-25T00:23:30.703Z,90.40
2018-06-25T00:25:59.410Z,90.40
2018-06-25T00:30:55.057Z,90.30
2018-06-25T00:33:23.009Z,90.30
2018-06-25T00:35:50.935Z,90.20
2018-06-25T00:38:18.828Z,90.30
2018-06-25T00:40:46.937Z,90.10
2018-06-25T00:43:14.834Z,90.20
2018-06-25T00:45:42.785Z,90.30
2018-06-25T00:48:11.255Z,90.40
2018-06-25T00:53:07.611Z,90.40
2018-06-25T00:55:37.014Z,90.50
2018-06-25T00:58:05.527Z,90.40
2018-06-25T01:00:34.088Z,90.20
2018-06-25T01:03:02.613Z,90.40
2018-06-25T01:05:30.520Z,90.50
2018-06-25T01:07:58.397Z,90.50
2018-06-25T01:12:54.274Z,90.50
2018-06-25T01:15:22.924Z,90.60
2018-06-25T01:17:50.779Z,90.60
2018-06-25T01:22:46.854Z,90.80
2018-06-25T01:25:15.442Z,90.90
2018-06-25T01:27:43.358Z,90.80
2018-06-25T01:32:39.287Z,90.50
2018-06-25T01:35:07.808Z,90.60
2018-06-25T01:37:35.676Z,90.70
2018-06-25T01:40:03.668Z,90.80
2018-06-25T01:42:31.576Z,90.60
2018-06-25T01:44:59.442Z,90.80
2018-06-25T01:47:27.960Z,90.80
2018-06-25T01:49:55.843Z,90.80
2018-06-25T01:52:24.412Z,90.80
2018-06-25T01:54:52.743Z,90.70
2018-06-25T01:57:21.435Z,90.70
2018-06-25T01:59:49.944Z,90.60
2018-06-25T02:04:46.670Z,90.70
2018-06-25T02:07:14.573Z,90.70
2018-06-25T02:09:42.759Z,90.90
2018-06-25T02:12:10.773Z,90.90
2018-06-25T02:14:38.679Z,90.70
2018-06-25T02:19:34.254Z,90.50
2018-06-25T02:22:02.110Z,90.20
2018-06-25T02:24:29.979Z,90.40
2018-06-25T02:26:58.512Z,90.30
2018-06-25T02:29:26.442Z,90.50
2018-06-25T02:31:54.664Z,90.90
2018-06-25T02:36:50.477Z,90.80
2018-06-25T02:39:18.387Z,90.80
2018-06-25T02:41:46.303Z,91.00
2018-06-25T02:44:14.225Z,91.10
2018-06-25T02:46:42.125Z,90.90
2018-06-25T02:49:10.130Z,91.00
2018-06-25T02:51:37.983Z,91.10
2018-06-25T02:54:06.995Z,91.20
2018-06-25T02:59:03.205Z,91.10
2018-06-25T03:01:31.101Z,90.90
2018-06-25T03:03:59.250Z,91.00
2018-06-25T03:06:27.815Z,91.00
2018-06-25T03:08:55.675Z,91.00
2018-06-25T03:11:24.124Z,91.00
2018-06-25T03:13:52.022Z,91.10
2018-06-25T03:16:19.936Z,91.20
2018-06-25T03:18:48.552Z,91.30
2018-06-25T03:21:16.672Z,91.10
2018-06-25T03:23:44.551Z,91.40
2018-06-25T03:26:12.591Z,91.60
2018-06-25T03:28:40.486Z,91.50
2018-06-25T03:36:04.377Z,91.70
2018-06-25T03:38:32.431Z,91.50
2018-06-25T03:41:00.330Z,91.60
2018-06-25T03:43:29.011Z,91.50
2018-06-25T03:45:56.940Z,91.50
2018-06-25T03:48:25.803Z,91.30
2018-06-25T03:53:21.885Z,91.40
2018-06-25T03:55:50.086Z,91.40
2018-06-25T03:58:19.012Z,91.50
2018-06-25T04:00:46.930Z,91.50
2018-06-25T04:03:14.836Z,91.50
2018-06-25T04:05:42.718Z,91.50
2018-06-25T04:08:10.591Z,91.40
2018-06-25T04:10:38.492Z,91.50
2018-06-25T04:13:06.395Z,91.40
2018-06-25T04:22:58.374Z,91.20
2018-06-25T04:30:21.830Z,91.40
2018-06-25T04:32:49.863Z,91.50
2018-06-25T04:35:17.971Z,91.50
2018-06-25T04:37:46.564Z,91.50
2018-06-25T04:40:14.919Z,91.50
2018-06-25T04:42:43.620Z,91.40
2018-06-25T04:45:11.524Z,91.50
2018-06-25T04:47:39.610Z,91.60
2018-06-25T04:50:07.587Z,91.60
2018-06-25T04:55:03.236Z,91.50
2018-06-25T04:57:31.745Z,91.50
2018-06-25T05:00:00.163Z,91.50
2018-06-25T05:02:28.142Z,91.60
2018-06-25T05:04:56.672Z,91.90
2018-06-25T05:07:24.542Z,91.60
2018-06-25T05:09:52.448Z,91.50
2018-06-25T05:17:15.956Z,91.70
2018-06-25T05:19:43.954Z,91.70
2018-06-25T05:24:39.631Z,91.60
2018-06-25T05:27:07.731Z,91.50
2018-06-25T05:29:35.789Z,91.80
2018-06-25T05:34:31.604Z,91.80
2018-06-25T05:36:59.502Z,91.60
2018-06-25T05:41:55.193Z,91.70
2018-06-25T05:44:23.308Z,91.70
2018-06-25T05:46:51.804Z,91.70
2018-06-25T05:49:19.686Z,91.60
2018-06-25T05:51:48.146Z,91.40
2018-06-25T05:54:16.054Z,91.60
2018-06-25T05:56:44.628Z,91.50
2018-06-25T05:59:12.548Z,91.40
2018-06-25T06:01:41.351Z,91.30
2018-06-25T06:04:09.271Z,90.90
2018-06-25T06:06:37.207Z,90.90
2018-06-25T06:09:07.310Z,90.80
2018-06-25T06:11:35.471Z,90.60
2018-06-25T06:14:03.490Z,91.10
2018-06-25T06:16:31.416Z,90.80
2018-06-25T06:21:28.237Z,90.30
2018-06-25T06:23:56.159Z,90.20
2018-06-25T06:26:24.657Z,89.70
2018-06-25T06:28:52.664Z,89.90
2018-06-25T06:31:21.330Z,89.70
2018-06-25T06:33:49.427Z,89.70
2018-06-25T06:36:18.127Z,89.40
2018-06-25T06:38:46.031Z,90.20
2018-06-25T06:41:18.642Z,90.50
2018-06-25T06:43:57.414Z,90.30
2018-06-25T06:46:26.261Z,90.10
2018-06-25T06:48:54.725Z,89.30
2018-06-25T06:51:22.678Z,88.20
2018-06-25T06:53:50.628Z,87.40
2018-06-25T06:56:19.260Z,86.70
2018-06-25T06:58:47.184Z,87.70
2018-06-25T07:01:15.177Z,87.60
2018-06-25T07:03:47.179Z,86.80
2018-06-25T07:08:49.396Z,88.00
2018-06-25T07:11:23.679Z,88.40
2018-06-25T07:13:53.583Z,87.20
2018-06-25T07:16:22.354Z,87.90
2018-06-25T07:18:53.284Z,87.20
2018-06-25T07:21:26.886Z,86.60
2018-06-25T07:23:55.236Z,86.90
2018-06-25T07:28:58.934Z,87.00
2018-06-25T07:31:32.090Z,86.20
2018-06-25T07:34:06.670Z,86.50
2018-06-25T07:36:41.304Z,86.30
2018-06-25T07:39:14.110Z,86.50
2018-06-25T07:41:44.819Z,86.50
2018-06-25T07:44:16.513Z,86.70
2018-06-25T07:46:44.704Z,86.00
2018-06-25T07:49:13.119Z,85.40
2018-06-25T07:51:52.159Z,84.40
2018-06-25T07:54:21.862Z,83.50
2018-06-25T07:56:49.774Z,81.40
2018-06-25T07:59:17.655Z,81.30
2018-06-25T08:01:49.819Z,82.40
2018-06-25T08:04:25.321Z,82.70
2018-06-25T08:06:57.526Z,81.60
2018-06-25T08:09:30.999Z,82.30
2018-06-25T08:12:04.082Z,82.00
2018-06-25T08:14:37.931Z,82.00
2018-06-25T08:17:09.226Z,82.60
2018-06-25T08:19:40.979Z,82.70
2018-06-25T08:22:11.129Z,83.40
2018-06-25T08:24:43.583Z,82.00
2018-06-25T08:27:17.153Z,82.90
2018-06-25T08:29:51.683Z,81.00
2018-06-25T08:32:23.289Z,81.50
2018-06-25T08:37:36.785Z,81.60
2018-06-25T08:42:39.342Z,82.90
2018-06-25T08:45:09.844Z,82.30
2018-06-25T08:47:40.722Z,81.50
2018-06-25T08:50:14.673Z,81.00
2018-06-25T08:52:49.692Z,79.80
2018-06-25T08:55:20.215Z,78.40
2018-06-25T08:57:52.301Z,79.90
2018-06-25T09:00:26.756Z,79.50
2018-06-25T09:05:29.593Z,81.90
2018-06-25T09:08:03.447Z,79.50
2018-06-25T09:10:34.763Z,78.30
2018-06-25T09:13:06.332Z,78.70
2018-06-25T09:15:36.877Z,79.40
2018-06-25T09:20:38.663Z,81.30
2018-06-25T09:25:36.949Z,81.10
2018-06-25T09:28:07.667Z,80.40
2018-06-25T09:30:40.587Z,81.20
2018-06-25T09:38:16.435Z,82.50
2018-06-25T09:40:46.724Z,79.60
2018-06-25T09:43:19.507Z,80.40
2018-06-25T09:45:50.686Z,79.90
2018-06-25T09:48:21.405Z,79.60
2018-06-25T09:50:54.320Z,79.50
2018-06-25T09:55:56.173Z,78.60
2018-06-25T10:01:03.423Z,77.90
2018-06-25T10:03:35.442Z,77.80
2018-06-25T10:06:09.101Z,78.30
2018-06-25T10:08:40.095Z,78.40
2018-06-25T10:18:41.508Z,78.10
2018-06-25T10:21:14.130Z,78.90
2018-06-25T10:23:44.009Z,78.60
2018-06-25T10:26:18.193Z,79.70
2018-06-25T10:28:53.642Z,78.40
2018-06-25T10:31:30.105Z,78.20
2018-06-25T10:34:02.892Z,77.80
2018-06-25T10:36:33.924Z,77.30
2018-06-25T10:39:06.095Z,76.10
2018-06-25T10:41:39.066Z,75.80
2018-06-25T10:46:38.880Z,75.60
2018-06-25T10:51:40.528Z,75.00
2018-06-25T10:54:10.295Z,75.90
2018-06-25T10:56:40.522Z,76.00
2018-06-25T11:01:42.409Z,77.00
2018-06-25T11:06:43.838Z,77.10
2018-06-25T11:09:15.545Z,74.90
2018-06-25T11:11:47.332Z,75.40
2018-06-25T11:14:16.757Z,77.90
2018-06-25T11:19:19.595Z,76.30
2018-06-25T11:21:49.671Z,76.10
2018-06-25T11:24:24.983Z,76.30
2018-06-25T11:29:25.232Z,77.20
2018-06-25T11:31:56.318Z,77.60
2018-06-25T11:34:28.014Z,76.80
2018-06-25T11:36:57.725Z,77.40
2018-06-25T11:39:27.870Z,78.30
2018-06-25T11:41:57.410Z,79.10
2018-06-25T11:44:26.914Z,78.50
2018-06-25T11:46:57.431Z,78.70
2018-06-25T11:51:56.359Z,79.10
2018-06-25T11:54:26.570Z,80.30
2018-06-25T11:56:59.751Z,79.30
2018-06-25T11:59:33.162Z,79.00
2018-06-25T12:02:02.293Z,79.00
2018-06-25T12:04:34.801Z,79.20
2018-06-25T12:07:05.229Z,80.70
2018-06-25T12:09:34.253Z,79.00
2018-06-25T12:12:03.021Z,75.50
2018-06-25T12:14:34.046Z,75.40
2018-06-25T12:17:06.061Z,76.10
2018-06-25T12:19:36.469Z,76.70
2018-06-25T12:22:05.370Z,75.70
2018-06-25T12:24:36.315Z,74.50
2018-06-25T12:27:05.104Z,74.50
2018-06-25T12:29:34.011Z,75.20
2018-06-25T12:32:02.478Z,75.60
2018-06-25T12:34:33.113Z,74.80
2018-06-25T12:37:01.782Z,75.30
2018-06-25T12:39:31.964Z,74.00
2018-06-25T12:44:29.549Z,75.20
2018-06-25T12:49:28.894Z,76.20
2018-06-25T12:51:57.128Z,75.40
2018-06-25T12:54:27.074Z,74.50
2018-06-25T12:56:57.338Z,75.20
2018-06-25T12:59:27.970Z,73.90
2018-06-25T13:01:58.085Z,72.10
2018-06-25T13:04:26.086Z,74.50
2018-06-25T13:06:55.216Z,75.40
2018-06-25T13:09:23.913Z,73.00
2018-06-25T13:11:52.739Z,74.30
2018-06-25T13:14:21.454Z,73.80
2018-06-25T13:16:50.531Z,74.30
2018-06-25T13:19:19.344Z,75.80
2018-06-25T13:24:20.419Z,75.90
2018-06-25T13:26:52.872Z,74.70
2018-06-25T13:29:21.220Z,76.40
2018-06-25T13:31:49.266Z,72.50
2018-06-25T13:39:15.638Z,73.70
2018-06-25T13:41:43.663Z,75.20
2018-06-25T13:44:12.720Z,74.50
2018-06-25T13:46:42.240Z,74.20
2018-06-25T13:49:10.699Z,75.00
2018-06-25T13:51:39.082Z,75.50
2018-06-25T13:54:07.105Z,74.30
2018-06-25T13:59:02.963Z,71.60
2018-06-25T14:01:31.059Z,69.50
2018-06-25T14:03:59.691Z,70.10
2018-06-25T14:06:28.022Z,69.90
2018-06-25T14:08:56.910Z,69.80
2018-06-25T14:11:25.171Z,70.10
2018-06-25T14:13:53.786Z,68.70
2018-06-25T14:16:21.763Z,69.60
2018-06-25T14:18:49.686Z,68.50
2018-06-25T14:21:17.858Z,68.10
2018-06-25T14:23:51.828Z,65.70
2018-06-25T14:26:20.477Z,68.70
2018-06-25T14:28:48.635Z,69.40
2018-06-25T14:33:57.571Z,68.10
2018-06-25T14:38:54.353Z,68.90
2018-06-25T14:41:23.423Z,67.70
2018-06-25T14:43:51.452Z,68.70
2018-06-25T14:46:19.431Z,69.60
2018-06-25T14:51:15.272Z,68.60
2018-06-25T14:53:43.892Z,69.50
2018-06-25T14:56:12.729Z,69.00
2018-06-25T14:58:40.677Z,70.20
2018-06-25T15:01:09.304Z,70.50
2018-06-25T15:03:37.305Z,69.80
2018-06-25T15:06:05.347Z,69.10
2018-06-25T15:08:34.707Z,69.90
2018-06-25T15:11:02.784Z,69.70
2018-06-25T15:13:31.531Z,69.80
2018-06-25T15:16:00.912Z,67.50
2018-06-25T15:18:28.881Z,70.70
2018-06-25T15:20:56.863Z,70.70
2018-06-25T15:23:24.807Z,69.80
2018-06-25T15:25:52.792Z,67.50
2018-06-25T15:28:21.351Z,68.60
2018-06-25T15:30:49.443Z,67.60
2018-06-25T15:33:17.384Z,67.90
2018-06-25T15:35:45.341Z,67.10
2018-06-25T15:38:14.319Z,67.30
2018-06-25T15:40:43.180Z,68.80
2018-06-25T15:45:38.987Z,69.20
2018-06-25T15:48:07.034Z,68.20
2018-06-25T15:50:34.971Z,68.30
2018-06-25T15:53:02.965Z,69.70
2018-06-25T15:55:30.893Z,70.50
2018-06-25T15:57:59.184Z,69.30
2018-06-25T16:02:55.804Z,68.20
2018-06-25T16:05:23.708Z,70.00
2018-06-25T16:07:51.875Z,70.30
2018-06-25T16:10:19.802Z,68.80
2018-06-25T16:12:48.263Z,68.10
2018-06-25T16:15:16.365Z,67.60
2018-06-25T16:17:44.305Z,67.70
2018-06-25T16:20:12.970Z,68.30
2018-06-25T16:22:40.897Z,69.10
2018-06-25T16:25:09.089Z,70.40
2018-06-25T16:27:37.049Z,68.80
2018-06-25T16:30:05.563Z,69.40
2018-06-25T16:32:33.443Z,69.20
2018-06-25T16:35:01.383Z,69.90
2018-06-25T16:37:29.382Z,68.90
2018-06-25T16:39:57.283Z,69.20
2018-06-25T16:42:25.491Z,69.90
2018-06-25T16:44:53.390Z,70.00
2018-06-25T16:47:22.745Z,69.50
2018-06-25T16:49:50.626Z,70.90
2018-06-25T16:54:46.381Z,71.60
2018-06-25T16:57:15.012Z,64.20
2018-06-25T16:59:43.015Z,64.50
2018-06-25T17:02:10.990Z,64.60
2018-06-25T17:07:06.842Z,65.40
2018-06-25T17:09:35.018Z,64.30
2018-06-25T17:12:02.938Z,63.90
2018-06-25T17:14:31.271Z,63.50
2018-06-25T17:16:59.187Z,64.70
2018-06-25T17:19:27.202Z,65.90
2018-06-25T17:21:55.802Z,64.40
2018-06-25T17:24:24.273Z,65.60
2018-06-25T17:26:52.192Z,65.10
2018-06-25T17:29:20.178Z,65.80
2018-06-25T17:31:48.473Z,65.60
2018-06-25T17:34:16.439Z,66.40
2018-06-25T17:39:13.478Z,67.50
2018-06-25T17:44:09.303Z,69.30
2018-06-25T17:46:37.263Z,68.60
2018-06-25T17:49:05.178Z,68.80
2018-06-25T17:51:33.083Z,68.50
2018-06-25T17:54:01.074Z,69.80
2018-06-25T17:56:28.998Z,70.10
2018-06-25T17:58:56.892Z,70.50
2018-06-25T18:01:24.808Z,70.70
2018-06-25T18:03:52.763Z,71.10
2018-06-25T18:06:20.689Z,71.20
2018-06-25T18:08:49.271Z,72.00
2018-06-25T18:11:17.257Z,72.30
2018-06-25T18:13:45.833Z,72.60
2018-06-25T18:16:14.254Z,73.20
2018-06-25T18:18:42.827Z,73.50
2018-06-25T18:21:10.743Z,73.90
2018-06-25T18:23:38.799Z,73.90
2018-06-25T18:26:06.721Z,74.10
2018-06-25T18:28:35.619Z,74.40
2018-06-25T18:31:04.227Z,75.00
2018-06-25T18:33:32.178Z,76.40
2018-06-25T18:36:00.668Z,76.50
2018-06-25T18:38:28.790Z,76.70
2018-06-25T18:40:56.948Z,77.00
2018-06-25T18:48:22.485Z,76.70
2018-06-25T18:53:19.112Z,77.30
2018-06-25T18:55:47.056Z,77.60
2018-06-25T18:58:15.000Z,77.60
2018-06-25T19:00:43.066Z,77.60
2018-06-25T19:03:10.995Z,78.00
2018-06-25T19:05:39.120Z,78.10
2018-06-25T19:13:02.558Z,79.20
2018-06-25T19:15:30.485Z,79.00
2018-06-25T19:17:58.533Z,79.00
2018-06-25T19:20:26.454Z,79.40
2018-06-25T19:22:54.378Z,79.20
2018-06-25T19:25:23.924Z,79.80
2018-06-25T19:27:51.867Z,79.10
2018-06-25T19:30:19.771Z,78.80
2018-06-25T19:32:48.014Z,78.80
2018-06-25T19:35:15.939Z,78.80
2018-06-25T19:37:43.947Z,79.80
2018-06-25T19:40:11.850Z,79.90
2018-06-25T19:42:39.806Z,80.70
2018-06-25T19:45:08.688Z,81.00
2018-06-25T19:47:37.349Z,81.30
2018-06-25T19:50:06.582Z,81.20
2018-06-25T19:52:34.472Z,81.30
2018-06-25T19:55:02.425Z,81.20
2018-06-25T19:57:30.364Z,81.10
2018-06-25T19:59:59.011Z,80.80
2018-06-25T20:04:54.738Z,81.00
2018-06-25T20:09:50.456Z,81.50
2018-06-25T20:14:46.476Z,81.90
2018-06-25T20:19:42.220Z,82.10
2018-06-25T20:24:38.006Z,82.20
2018-06-25T20:29:33.746Z,82.10
2018-06-25T20:32:02.400Z,81.80
2018-06-25T20:34:30.588Z,81.80
2018-06-25T20:39:26.397Z,81.90
2018-06-25T20:41:54.331Z,82.10
2018-06-25T20:44:22.254Z,81.90
2018-06-25T20:46:50.930Z,81.90
2018-06-25T20:49:18.873Z,82.00
2018-06-25T20:51:46.771Z,82.30
2018-06-25T20:56:42.627Z,82.40
2018-06-25T20:59:11.375Z,82.50
2018-06-25T21:01:39.352Z,82.70
2018-06-25T21:04:07.969Z,82.80
2018-06-25T21:06:36.513Z,82.60
2018-06-25T21:09:07.415Z,82.60
2018-06-25T21:11:36.104Z,82.50
2018-06-25T21:14:04.400Z,82.80
2018-06-25T21:16:32.357Z,82.90
2018-06-25T21:19:00.274Z,82.50
2018-06-25T21:23:56.050Z,83.50
2018-06-25T21:26:24.572Z,83.70
2018-06-25T21:28:52.686Z,83.40
2018-06-25T21:33:48.628Z,83.70
2018-06-25T21:36:16.558Z,83.80
2018-06-25T21:38:45.095Z,83.50
2018-06-25T21:41:13.113Z,83.40
2018-06-25T21:43:41.783Z,83.50
2018-06-25T21:46:09.842Z,83.60
2018-06-25T21:48:37.840Z,83.60
2018-06-25T21:51:05.845Z,83.60
2018-06-25T21:53:33.785Z,84.00
2018-06-25T21:58:29.635Z,84.20
2018-06-25T22:00:57.867Z,84.40
2018-06-25T22:03:25.817Z,84.90
2018-06-25T22:05:53.735Z,85.00
2018-06-25T22:08:21.653Z,84.80
2018-06-25T22:10:50.090Z,85.00
2018-06-25T22:18:13.606Z,85.20
2018-06-25T22:23:09.379Z,85.60
2018-06-25T22:25:37.403Z,85.60
2018-06-25T22:28:05.735Z,85.50
2018-06-25T22:30:33.699Z,85.40
2018-06-25T22:33:01.639Z,85.10
2018-06-25T22:35:30.278Z,85.40
2018-06-25T22:37:58.190Z,85.60
2018-06-25T22:40:26.083Z,85.20
2018-06-25T22:42:54.001Z,85.40
2018-06-25T22:47:50.540Z,85.50
2018-06-25T22:50:18.454Z,85.20
2018-06-25T22:52:46.625Z,85.30
2018-06-25T22:55:14.537Z,85.80
2018-06-25T22:57:42.616Z,85.60
2018-06-25T23:02:38.910Z,86.40
2018-06-25T23:05:06.834Z,85.80
2018-06-25T23:07:34.746Z,85.40
2018-06-25T23:10:02.744Z,85.40
2018-06-25T23:12:30.670Z,85.50
2018-06-25T23:14:58.577Z,85.50
2018-06-25T23:17:26.488Z,85.90
2018-06-25T23:19:54.396Z,85.70
2018-06-25T23:22:22.371Z,85.90
2018-06-25T23:24:50.247Z,86.40
2018-06-25T23:27:18.280Z,86.70
2018-06-25T23:29:46.189Z,87.50
2018-06-25T23:32:14.085Z,87.30
2018-06-25T23:37:11.388Z,87.60
2018-06-25T23:39:39.457Z,87.40
2018-06-25T23:42:07.331Z,87.60
2018-06-25T23:47:03.347Z,87.90
2018-06-25T23:54:26.978Z,87.90
2018-06-25T23:56:54.938Z,88.30
